Time;durP1;ratioP1;P1;durP2;ratioP2;P2;SDS_P1;SDS_P2;PMS_P1;PMS_P2;Temp;Humidity;BMP_temperature;BMP_pressure;BME280_temperature;BME280_humidity;BME280_pressure;Samples;Min_cycle;Max_cycle;Signal;HPM_P1;HPM_P2
2021/07/01 00:00:08;;;;;;;10.58;5.91;;;;;;;;;;350647;153;857537;-62
2021/07/01 00:01:10;;;;;;;9.59;6.32;;;;;;;;;;349800;152;858829;-62
2021/07/01 00:02:11;;;;;;;8.74;6.88;;;;;;;;;;343029;156;866142;-61
2021/07/01 00:03:13;;;;;;;11.59;6.71;;;;;;;;;;349160;153;857974;-60
2021/07/01 00:04:14;;;;;;;8.94;6.52;;;;;;;;;;350640;152;857442;-62
2021/07/01 00:05:16;;;;;;;11.94;6.66;;;;;;;;;;349177;152;859138;-62
2021/07/01 00:06:19;;;;;;;8.33;5.94;;;;;;;;;;352831;152;858318;-62
2021/07/01 00:07:21;;;;;;;11.19;6.46;;;;;;;;;;349438;152;857781;-62
2021/07/01 00:08:23;;;;;;;12.62;6.47;;;;;;;;;;349563;153;859043;-62
2021/07/01 00:09:25;;;;;;;8.69;6.58;;;;;;;;;;347033;152;857568;-62
2021/07/01 00:10:29;;;;;;;7.49;6.09;;;;;;;;;;349675;153;858761;-62
2021/07/01 00:11:31;;;;;;;10.31;6.87;;;;;;;;;;347876;152;857262;-62
2021/07/01 00:12:33;;;;;;;8.90;6.14;;;;;;;;;;346139;153;857176;-62
2021/07/01 00:13:34;;;;;;;14.27;6.73;;;;;;;;;;347966;152;858689;-62
2021/07/01 00:14:36;;;;;;;9.80;7.27;;;;;;;;;;347170;153;857482;-62
2021/07/01 00:15:37;;;;;;;10.28;7.01;;;;;;;;;;346481;153;859396;-62
2021/07/01 00:16:39;;;;;;;10.63;6.96;;;;;;;;;;349042;152;857260;-62
2021/07/01 00:17:41;;;;;;;11.82;6.58;;;;;;;;;;348164;152;864910;-63
2021/07/01 00:18:43;;;;;;;8.63;6.65;;;;;;;;;;348492;152;865880;-63
2021/07/01 00:19:44;;;;;;;9.01;6.95;;;;;;;;;;348973;153;857469;-63
2021/07/01 00:20:46;;;;;;;10.96;6.89;;;;;;;;;;349187;152;858260;-63
2021/07/01 00:21:48;;;;;;;8.91;6.55;;;;;;;;;;347511;152;865590;-61
2021/07/01 00:22:50;;;;;;;11.39;6.90;;;;;;;;;;351552;151;857350;-61
2021/07/01 00:23:51;;;;;;;9.46;7.09;;;;;;;;;;349749;153;864914;-62
2021/07/01 00:24:53;;;;;;;10.39;6.69;;;;;;;;;;348793;154;857212;-62
2021/07/01 00:25:54;;;;;;;8.53;6.83;;;;;;;;;;349048;153;866636;-64
2021/07/01 00:26:56;;;;;;;7.52;6.28;;;;;;;;;;350352;152;857365;-62
2021/07/01 00:27:59;;;;;;;7.83;7.03;;;;;;;;;;345268;156;866906;-62
2021/07/01 00:29:00;;;;;;;10.91;6.79;;;;;;;;;;347930;152;859092;-62
2021/07/01 00:30:03;;;;;;;9.46;7.18;;;;;;;;;;350425;153;860131;-62
2021/07/01 00:31:05;;;;;;;9.80;6.86;;;;;;;;;;349829;153;865190;-63
2021/07/01 00:32:07;;;;;;;7.26;6.56;;;;;;;;;;346622;153;865038;-63
2021/07/01 00:33:09;;;;;;;11.99;6.72;;;;;;;;;;345851;153;857479;-63
2021/07/01 00:34:10;;;;;;;8.30;6.32;;;;;;;;;;344983;153;858698;-62
2021/07/01 00:35:12;;;;;;;7.66;6.70;;;;;;;;;;345439;155;865185;-62
2021/07/01 00:36:15;;;;;;;12.96;7.58;;;;;;;;;;344246;154;865059;-62
2021/07/01 00:37:17;;;;;;;7.80;6.43;;;;;;;;;;346613;153;857614;-62
2021/07/01 00:38:19;;;;;;;10.62;7.11;;;;;;;;;;345837;155;857260;-62
2021/07/01 00:39:20;;;;;;;9.54;6.89;;;;;;;;;;344508;153;865734;-62
2021/07/01 00:40:24;;;;;;;7.94;7.11;;;;;;;;;;346249;153;857868;-63
2021/07/01 00:41:25;;;;;;;8.19;6.86;;;;;;;;;;345144;153;858697;-62
2021/07/01 00:42:27;;;;;;;11.11;6.84;;;;;;;;;;344391;153;857408;-62
2021/07/01 00:43:28;;;;;;;9.09;7.57;;;;;;;;;;347526;153;859072;-62
2021/07/01 00:44:30;;;;;;;9.68;6.34;;;;;;;;;;340815;156;866794;-62
2021/07/01 00:45:32;;;;;;;12.91;6.59;;;;;;;;;;340342;156;857491;-62
2021/07/01 00:46:33;;;;;;;11.17;6.69;;;;;;;;;;345661;153;857410;-62
2021/07/01 00:47:35;;;;;;;10.01;6.48;;;;;;;;;;345811;154;867215;-62
2021/07/01 00:48:37;;;;;;;12.19;6.55;;;;;;;;;;344905;153;865970;-63
2021/07/01 00:49:38;;;;;;;10.08;6.65;;;;;;;;;;346174;153;859690;-62
2021/07/01 00:50:40;;;;;;;9.65;6.47;;;;;;;;;;343653;153;857890;-62
2021/07/01 00:51:42;;;;;;;7.59;6.31;;;;;;;;;;344824;155;864876;-62
2021/07/01 00:52:43;;;;;;;13.10;6.91;;;;;;;;;;344535;153;857384;-62
2021/07/01 00:53:45;;;;;;;10.26;6.43;;;;;;;;;;340394;155;857364;-62
2021/07/01 00:54:46;;;;;;;11.84;6.89;;;;;;;;;;340905;155;866838;-62
2021/07/01 00:55:48;;;;;;;9.97;7.36;;;;;;;;;;345390;153;857295;-62
2021/07/01 00:56:50;;;;;;;11.79;7.46;;;;;;;;;;341203;153;858584;-62
2021/07/01 00:57:51;;;;;;;9.74;7.20;;;;;;;;;;345127;155;867658;-62
2021/07/01 00:58:54;;;;;;;11.72;7.31;;;;;;;;;;347072;153;858815;-64
2021/07/01 00:59:55;;;;;;;14.41;7.37;;;;;;;;;;346671;153;857322;-61
2021/07/01 01:01:58;;;;;;;9.74;6.60;;;;;;;;;;345727;153;864901;-62
2021/07/01 01:03:00;;;;;;;9.21;6.96;;;;;;;;;;344818;153;857181;-62
2021/07/01 01:04:02;;;;;;;7.41;6.56;;;;;;;;;;349031;154;859501;-62
2021/07/01 01:05:04;;;;;;;10.52;6.82;;;;;;;;;;347977;153;859437;-62
2021/07/01 01:06:06;;;;;;;8.01;6.61;;;;;;;;;;343161;153;859794;-63
2021/07/01 01:07:08;;;;;;;11.02;7.37;;;;;;;;;;335122;158;866277;-62
2021/07/01 01:08:10;;;;;;;10.81;7.27;;;;;;;;;;335349;158;857390;-62
2021/07/01 01:09:11;;;;;;;11.13;7.34;;;;;;;;;;336478;156;858369;-62
2021/07/01 01:10:14;;;;;;;9.39;7.05;;;;;;;;;;333393;158;866229;-62
2021/07/01 01:11:16;;;;;;;17.43;7.73;;;;;;;;;;337088;157;857355;-62
2021/07/01 01:12:17;;;;;;;10.06;7.86;;;;;;;;;;339847;157;858823;-62
2021/07/01 01:13:25;;;;;;;12.73;8.06;;;;;;;;;;339414;154;858678;-62
2021/07/01 01:14:27;;;;;;;9.63;7.63;;;;;;;;;;340600;156;857547;-62
2021/07/01 01:15:29;;;;;;;10.73;8.00;;;;;;;;;;338626;156;857478;-63
2021/07/01 01:16:32;;;;;;;12.36;7.67;;;;;;;;;;333837;159;865049;-63
2021/07/01 01:17:34;;;;;;;10.50;7.84;;;;;;;;;;337423;157;860418;-63
2021/07/01 01:18:35;;;;;;;9.44;7.64;;;;;;;;;;338134;156;865070;-61
2021/07/01 01:19:37;;;;;;;12.64;8.38;;;;;;;;;;338711;156;859188;-62
2021/07/01 01:20:39;;;;;;;9.34;8.11;;;;;;;;;;341387;157;865138;-61
2021/07/01 01:21:44;;;;;;;11.94;8.14;;;;;;;;;;339416;156;857412;-61
2021/07/01 01:22:46;;;;;;;13.84;8.36;;;;;;;;;;339266;154;857264;-63
2021/07/01 01:23:48;;;;;;;12.11;7.93;;;;;;;;;;339110;157;857328;-62
2021/07/01 01:24:49;;;;;;;15.96;8.23;;;;;;;;;;340835;156;865610;-62
2021/07/01 01:25:51;;;;;;;9.61;8.11;;;;;;;;;;340309;155;857881;-62
2021/07/01 01:26:53;;;;;;;10.71;8.30;;;;;;;;;;336441;160;858877;-62
2021/07/01 01:27:54;;;;;;;12.78;8.30;;;;;;;;;;340287;156;857273;-62
2021/07/01 01:28:56;;;;;;;9.92;7.81;;;;;;;;;;337547;155;857380;-62
2021/07/01 01:29:58;;;;;;;15.71;8.36;;;;;;;;;;338904;157;857331;-62
2021/07/01 01:30:59;;;;;;;11.08;8.27;;;;;;;;;;338508;157;857411;-63
2021/07/01 01:32:02;;;;;;;9.58;7.79;;;;;;;;;;338701;156;866041;-62
2021/07/01 01:33:04;;;;;;;12.45;8.43;;;;;;;;;;350107;153;858734;-62
2021/07/01 01:34:06;;;;;;;11.53;8.43;;;;;;;;;;349969;153;858612;-63
2021/07/01 01:35:07;;;;;;;11.68;8.47;;;;;;;;;;349293;152;858632;-62
2021/07/01 01:36:09;;;;;;;13.41;8.66;;;;;;;;;;351266;153;866377;-63
2021/07/01 01:37:11;;;;;;;9.86;8.01;;;;;;;;;;351255;153;857391;-63
2021/07/01 01:38:13;;;;;;;11.91;8.99;;;;;;;;;;349048;153;857385;-63
2021/07/01 01:39:14;;;;;;;18.03;8.71;;;;;;;;;;349246;152;857522;-63
2021/07/01 01:40:18;;;;;;;13.21;8.73;;;;;;;;;;345078;153;857428;-63
2021/07/01 01:41:23;;;;;;;11.30;9.00;;;;;;;;;;344121;153;859770;-62
2021/07/01 01:42:25;;;;;;;20.74;9.67;;;;;;;;;;349905;153;864927;-62
2021/07/01 01:43:26;;;;;;;12.48;8.83;;;;;;;;;;352198;153;858990;-63
2021/07/01 01:44:28;;;;;;;13.71;9.60;;;;;;;;;;349750;153;859241;-63
2021/07/01 01:45:29;;;;;;;14.05;9.06;;;;;;;;;;348261;153;860160;-63
2021/07/01 01:46:36;;;;;;;19.84;9.82;;;;;;;;;;348296;154;857985;-62
2021/07/01 01:47:38;;;;;;;14.24;9.15;;;;;;;;;;349337;152;857833;-62
2021/07/01 01:48:39;;;;;;;15.88;10.27;;;;;;;;;;348514;153;860788;-63
2021/07/01 01:49:43;;;;;;;13.52;9.86;;;;;;;;;;349469;153;857362;-63
2021/07/01 01:50:45;;;;;;;11.35;9.08;;;;;;;;;;349947;153;858532;-63
2021/07/01 01:51:47;;;;;;;13.24;9.95;;;;;;;;;;345569;153;859740;-62
2021/07/01 01:52:49;;;;;;;16.24;9.37;;;;;;;;;;348935;154;864997;-63
2021/07/01 01:53:50;;;;;;;18.71;9.61;;;;;;;;;;343660;154;857491;-62
2021/07/01 01:54:53;;;;;;;15.17;9.39;;;;;;;;;;343015;153;860176;-62
2021/07/01 01:55:55;;;;;;;15.21;9.79;;;;;;;;;;348099;152;859064;-64
2021/07/01 01:56:56;;;;;;;19.77;10.19;;;;;;;;;;349328;152;867396;-64
2021/07/01 01:57:58;;;;;;;11.66;9.04;;;;;;;;;;348554;152;864967;-63
2021/07/01 01:58:59;;;;;;;19.73;9.70;;;;;;;;;;349392;153;858302;-63
2021/07/01 02:00:02;;;;;;;13.59;9.41;;;;;;;;;;349835;153;857491;-64
2021/07/01 02:01:04;;;;;;;12.91;9.54;;;;;;;;;;349418;152;865936;-63
2021/07/01 02:02:05;;;;;;;15.66;9.28;;;;;;;;;;348859;153;858209;-64
2021/07/01 02:03:07;;;;;;;15.27;9.75;;;;;;;;;;346172;153;865045;-64
2021/07/01 02:04:09;;;;;;;12.46;9.59;;;;;;;;;;348883;152;857427;-64
2021/07/01 02:05:10;;;;;;;16.42;9.88;;;;;;;;;;347360;152;865093;-64
2021/07/01 02:06:13;;;;;;;13.53;10.42;;;;;;;;;;349519;152;865127;-64
2021/07/01 02:07:15;;;;;;;15.20;9.91;;;;;;;;;;349513;152;865744;-64
2021/07/01 02:08:16;;;;;;;14.59;10.14;;;;;;;;;;348819;153;857383;-64
2021/07/01 02:09:18;;;;;;;12.86;9.49;;;;;;;;;;347429;153;865534;-64
2021/07/01 02:10:21;;;;;;;13.31;10.24;;;;;;;;;;349656;153;857253;-64
2021/07/01 02:11:23;;;;;;;16.13;9.57;;;;;;;;;;347566;152;858952;-64
2021/07/01 02:12:25;;;;;;;15.10;10.29;;;;;;;;;;350715;153;866783;-63
2021/07/01 02:13:26;;;;;;;16.83;10.27;;;;;;;;;;350195;153;866754;-65
2021/07/01 02:14:28;;;;;;;16.09;10.58;;;;;;;;;;348482;152;859092;-62
2021/07/01 02:15:29;;;;;;;17.31;10.16;;;;;;;;;;350001;151;866747;-62
2021/07/01 02:16:31;;;;;;;18.92;10.13;;;;;;;;;;346899;152;859062;-62
2021/07/01 02:17:34;;;;;;;16.73;10.00;;;;;;;;;;349011;152;858267;-63
2021/07/01 02:18:36;;;;;;;13.97;10.03;;;;;;;;;;345818;153;859909;-62
2021/07/01 02:19:37;;;;;;;15.44;9.60;;;;;;;;;;348884;153;858412;-62
2021/07/01 02:20:40;;;;;;;12.72;10.29;;;;;;;;;;350556;152;857305;-61
2021/07/01 02:21:41;;;;;;;12.19;10.17;;;;;;;;;;349188;152;857265;-62
2021/07/01 02:22:43;;;;;;;10.67;9.49;;;;;;;;;;350246;152;857271;-61
2021/07/01 02:23:45;;;;;;;13.60;10.26;;;;;;;;;;350864;152;859090;-61
2021/07/01 02:24:46;;;;;;;16.19;10.14;;;;;;;;;;351730;153;858238;-62
2021/07/01 02:25:48;;;;;;;17.54;10.13;;;;;;;;;;347815;153;865970;-60
2021/07/01 02:26:50;;;;;;;14.20;10.19;;;;;;;;;;350464;152;858657;-62
2021/07/01 02:27:51;;;;;;;19.19;9.61;;;;;;;;;;352048;153;858241;-62
2021/07/01 02:28:53;;;;;;;11.55;8.21;;;;;;;;;;347542;153;857275;-62
2021/07/01 02:29:54;;;;;;;17.47;8.91;;;;;;;;;;349494;152;857326;-62
2021/07/01 02:30:56;;;;;;;12.01;8.29;;;;;;;;;;346826;153;857325;-62
2021/07/01 02:31:57;;;;;;;12.18;7.93;;;;;;;;;;349266;153;865443;-62
2021/07/01 02:32:59;;;;;;;11.28;7.79;;;;;;;;;;347381;153;859591;-64
2021/07/01 02:34:01;;;;;;;12.42;8.09;;;;;;;;;;345287;153;866922;-61
2021/07/01 02:35:03;;;;;;;10.95;7.84;;;;;;;;;;347592;154;859120;-63
2021/07/01 02:36:05;;;;;;;9.38;7.74;;;;;;;;;;347685;153;857509;-63
2021/07/01 02:37:07;;;;;;;16.68;8.89;;;;;;;;;;347394;154;857317;-64
2021/07/01 02:38:08;;;;;;;12.63;8.63;;;;;;;;;;348899;154;866192;-63
2021/07/01 02:39:10;;;;;;;10.03;8.46;;;;;;;;;;347932;152;859209;-62
2021/07/01 02:40:15;;;;;;;12.59;7.95;;;;;;;;;;346557;152;860114;-62
2021/07/01 02:41:16;;;;;;;10.11;7.96;;;;;;;;;;346675;154;857537;-62
2021/07/01 02:42:17;;;;;;;13.89;8.16;;;;;;;;;;345773;153;857448;-62
2021/07/01 02:43:19;;;;;;;10.83;7.77;;;;;;;;;;347083;153;858773;-62
2021/07/01 02:44:20;;;;;;;10.30;7.83;;;;;;;;;;346420;153;860227;-62
2021/07/01 02:45:22;;;;;;;12.78;7.94;;;;;;;;;;345274;154;858226;-62
2021/07/01 02:46:24;;;;;;;9.93;7.77;;;;;;;;;;348427;152;857259;-61
2021/07/01 02:47:26;;;;;;;13.27;8.59;;;;;;;;;;338692;156;857353;-62
2021/07/01 02:48:27;;;;;;;13.45;7.89;;;;;;;;;;332459;159;857331;-62
2021/07/01 02:49:29;;;;;;;11.38;8.69;;;;;;;;;;334029;159;858944;-63
2021/07/01 02:50:32;;;;;;;15.91;8.66;;;;;;;;;;337214;157;859678;-62
2021/07/01 02:51:33;;;;;;;16.11;9.04;;;;;;;;;;338062;156;857550;-62
2021/07/01 02:52:35;;;;;;;14.73;9.46;;;;;;;;;;337667;157;865065;-63
2021/07/01 02:53:37;;;;;;;10.13;9.03;;;;;;;;;;338371;156;857412;-63
2021/07/01 02:54:38;;;;;;;14.18;9.49;;;;;;;;;;342629;157;857267;-63
2021/07/01 02:55:40;;;;;;;14.45;10.27;;;;;;;;;;340605;156;858227;-63
2021/07/01 02:56:42;;;;;;;11.51;9.41;;;;;;;;;;340747;157;860709;-63
2021/07/01 02:57:43;;;;;;;10.90;9.33;;;;;;;;;;329674;160;857424;-63
2021/07/01 02:58:45;;;;;;;12.70;9.59;;;;;;;;;;335828;159;859092;-63
2021/07/01 02:59:46;;;;;;;10.55;9.38;;;;;;;;;;337750;158;857945;-62
2021/07/01 03:00:48;;;;;;;13.61;9.70;;;;;;;;;;336572;157;857323;-61
2021/07/01 03:01:50;;;;;;;14.24;9.79;;;;;;;;;;335929;159;857312;-61
2021/07/01 03:02:51;;;;;;;14.89;9.64;;;;;;;;;;335833;159;859303;-61
2021/07/01 03:03:53;;;;;;;14.06;8.07;;;;;;;;;;335050;159;858251;-61
2021/07/01 03:04:54;;;;;;;15.89;8.10;;;;;;;;;;337581;159;857458;-61
2021/07/01 03:05:56;;;;;;;13.46;8.99;;;;;;;;;;334796;158;857383;-61
2021/07/01 03:06:58;;;;;;;11.49;8.99;;;;;;;;;;337070;156;866898;-61
2021/07/01 03:07:59;;;;;;;11.76;8.95;;;;;;;;;;338255;158;857464;-61
2021/07/01 03:09:01;;;;;;;14.44;9.31;;;;;;;;;;336465;158;858278;-61
2021/07/01 03:10:03;;;;;;;13.35;9.21;;;;;;;;;;339316;155;857286;-61
2021/07/01 03:11:05;;;;;;;12.96;9.77;;;;;;;;;;338022;158;857859;-61
2021/07/01 03:12:07;;;;;;;14.79;10.07;;;;;;;;;;337707;157;858483;-63
2021/07/01 03:13:09;;;;;;;11.93;10.05;;;;;;;;;;338724;158;857518;-63
2021/07/01 03:14:10;;;;;;;12.16;10.01;;;;;;;;;;336430;156;858446;-62
2021/07/01 03:15:12;;;;;;;12.80;10.21;;;;;;;;;;338627;159;857466;-62
2021/07/01 03:16:16;;;;;;;14.83;11.02;;;;;;;;;;337303;156;866703;-63
2021/07/01 03:17:17;;;;;;;14.00;9.84;;;;;;;;;;336377;157;857390;-62
2021/07/01 03:18:19;;;;;;;16.75;10.41;;;;;;;;;;333431;157;857725;-62
2021/07/01 03:19:21;;;;;;;13.31;10.70;;;;;;;;;;337473;156;858498;-62
2021/07/01 03:20:23;;;;;;;16.29;10.41;;;;;;;;;;339127;157;857452;-63
2021/07/01 03:21:25;;;;;;;11.49;10.32;;;;;;;;;;338355;156;857546;-63
2021/07/01 03:22:46;;;;;;;17.24;10.89;;;;;;;;;;337834;158;858326;-63
2021/07/01 03:23:48;;;;;;;13.53;10.21;;;;;;;;;;337698;154;857331;-61
2021/07/01 03:24:49;;;;;;;15.22;10.12;;;;;;;;;;333026;159;859086;-61
2021/07/01 03:25:51;;;;;;;14.86;10.01;;;;;;;;;;332639;159;866898;-61
2021/07/01 03:26:53;;;;;;;13.21;10.17;;;;;;;;;;336962;155;858692;-61
2021/07/01 03:27:55;;;;;;;15.15;10.57;;;;;;;;;;335522;158;865878;-62
2021/07/01 03:28:56;;;;;;;12.45;10.46;;;;;;;;;;338293;154;857304;-62
2021/07/01 03:29:58;;;;;;;17.05;11.08;;;;;;;;;;337008;155;857330;-61
2021/07/01 03:31:00;;;;;;;15.27;10.86;;;;;;;;;;336685;156;857329;-61
2021/07/01 03:32:01;;;;;;;14.17;10.21;;;;;;;;;;334876;159;864955;-62
2021/07/01 03:33:03;;;;;;;14.17;10.50;;;;;;;;;;334495;157;857329;-62
2021/07/01 03:34:04;;;;;;;12.11;10.44;;;;;;;;;;334894;155;868006;-62
2021/07/01 03:35:07;;;;;;;15.91;10.79;;;;;;;;;;337600;158;858971;-62
2021/07/01 03:36:08;;;;;;;14.11;11.11;;;;;;;;;;335501;157;858794;-62
2021/07/01 03:37:11;;;;;;;15.07;11.87;;;;;;;;;;344715;152;857397;-62
2021/07/01 03:38:12;;;;;;;14.40;10.69;;;;;;;;;;342460;155;860387;-62
2021/07/01 03:39:14;;;;;;;19.99;10.96;;;;;;;;;;342238;152;857511;-63
2021/07/01 03:40:16;;;;;;;14.35;11.19;;;;;;;;;;335528;155;857167;-62
2021/07/01 03:41:18;;;;;;;14.93;10.84;;;;;;;;;;330718;161;857529;-62
2021/07/01 03:42:21;;;;;;;13.47;11.31;;;;;;;;;;330913;162;866331;-62
2021/07/01 03:43:23;;;;;;;14.73;11.36;;;;;;;;;;331114;158;866130;-62
2021/07/01 03:44:24;;;;;;;16.81;11.65;;;;;;;;;;330476;159;858825;-62
2021/07/01 03:45:26;;;;;;;15.69;11.61;;;;;;;;;;330866;162;857904;-62
2021/07/01 03:46:28;;;;;;;13.32;10.79;;;;;;;;;;330967;161;857420;-62
2021/07/01 03:47:29;;;;;;;12.84;11.47;;;;;;;;;;330485;158;857285;-62
2021/07/01 03:48:31;;;;;;;13.55;11.77;;;;;;;;;;329390;162;857780;-62
2021/07/01 03:49:33;;;;;;;17.69;11.52;;;;;;;;;;328592;162;857218;-62
2021/07/01 03:50:36;;;;;;;16.05;11.53;;;;;;;;;;337313;155;858173;-62
2021/07/01 03:51:38;;;;;;;14.80;11.31;;;;;;;;;;339559;155;857440;-62
2021/07/01 03:52:39;;;;;;;14.39;10.40;;;;;;;;;;339573;157;857506;-62
2021/07/01 03:53:41;;;;;;;14.18;11.39;;;;;;;;;;334424;155;864996;-62
2021/07/01 03:54:42;;;;;;;15.49;11.13;;;;;;;;;;330897;161;858265;-62
2021/07/01 03:55:44;;;;;;;12.36;10.24;;;;;;;;;;332116;162;858844;-62
2021/07/01 03:56:46;;;;;;;12.19;10.47;;;;;;;;;;323226;162;857234;-62
2021/07/01 03:57:47;;;;;;;16.49;10.47;;;;;;;;;;322810;163;857375;-62
2021/07/01 03:58:49;;;;;;;17.74;10.60;;;;;;;;;;327143;162;857387;-61
2021/07/01 03:59:51;;;;;;;12.64;10.91;;;;;;;;;;332055;161;857266;-62
2021/07/01 04:00:52;;;;;;;15.09;10.41;;;;;;;;;;329630;158;857449;-62
2021/07/01 04:01:54;;;;;;;12.17;9.59;;;;;;;;;;327592;162;865750;-62
2021/07/01 04:02:55;;;;;;;16.04;9.38;;;;;;;;;;331572;161;858209;-62
2021/07/01 04:03:57;;;;;;;11.21;9.89;;;;;;;;;;328161;158;860537;-61
2021/07/01 04:04:58;;;;;;;11.63;10.16;;;;;;;;;;330043;158;858865;-62
2021/07/01 04:06:00;;;;;;;13.16;9.45;;;;;;;;;;342282;155;857250;-61
2021/07/01 04:07:04;;;;;;;13.29;9.44;;;;;;;;;;338560;155;857317;-61
2021/07/01 04:08:05;;;;;;;13.14;9.28;;;;;;;;;;336414;155;867207;-61
2021/07/01 04:09:07;;;;;;;12.49;9.34;;;;;;;;;;339812;157;865342;-61
2021/07/01 04:10:13;;;;;;;11.66;9.43;;;;;;;;;;340059;155;859922;-62
2021/07/01 04:11:15;;;;;;;12.04;9.16;;;;;;;;;;337724;155;857554;-61
2021/07/01 04:12:16;;;;;;;12.63;8.71;;;;;;;;;;340267;157;857429;-61
2021/07/01 04:13:18;;;;;;;11.14;8.58;;;;;;;;;;339748;155;863376;-61
2021/07/01 04:14:19;;;;;;;11.56;8.69;;;;;;;;;;338464;156;857301;-60
2021/07/01 04:15:21;;;;;;;11.41;8.25;;;;;;;;;;339479;157;857316;-62
2021/07/01 04:16:24;;;;;;;13.45;8.58;;;;;;;;;;341456;157;859374;-62
2021/07/01 04:17:26;;;;;;;9.71;8.65;;;;;;;;;;337679;155;866237;-62
2021/07/01 04:18:28;;;;;;;14.29;9.04;;;;;;;;;;340161;157;857819;-62
2021/07/01 04:19:29;;;;;;;12.95;8.86;;;;;;;;;;337949;155;865028;-61
2021/07/01 04:20:33;;;;;;;11.85;8.61;;;;;;;;;;337912;155;857339;-61
2021/07/01 04:21:35;;;;;;;10.27;8.46;;;;;;;;;;336906;155;858397;-61
2021/07/01 04:22:36;;;;;;;12.13;8.49;;;;;;;;;;340367;157;857347;-62
2021/07/01 04:23:38;;;;;;;10.31;8.41;;;;;;;;;;341490;155;865084;-62
2021/07/01 04:24:39;;;;;;;9.28;8.12;;;;;;;;;;340451;155;857596;-61
2021/07/01 04:25:41;;;;;;;12.02;8.24;;;;;;;;;;342367;157;857171;-62
2021/07/01 04:26:43;;;;;;;11.96;8.28;;;;;;;;;;341581;152;858931;-62
2021/07/01 04:27:45;;;;;;;14.86;8.59;;;;;;;;;;343283;152;858893;-62
2021/07/01 04:28:48;;;;;;;13.26;7.85;;;;;;;;;;343534;157;865180;-62
2021/07/01 04:29:49;;;;;;;11.91;8.09;;;;;;;;;;337707;154;860686;-62
2021/07/01 04:30:51;;;;;;;10.02;7.67;;;;;;;;;;341186;154;857175;-62
2021/07/01 04:31:53;;;;;;;10.74;8.07;;;;;;;;;;340489;156;867398;-61
2021/07/01 04:32:55;;;;;;;9.78;8.06;;;;;;;;;;340043;154;866145;-61
2021/07/01 04:33:56;;;;;;;14.84;8.48;;;;;;;;;;339440;155;859440;-61
2021/07/01 04:34:58;;;;;;;10.57;8.09;;;;;;;;;;341383;157;858577;-62
2021/07/01 04:35:59;;;;;;;10.96;7.96;;;;;;;;;;342808;154;858426;-62
2021/07/01 04:37:03;;;;;;;11.45;8.07;;;;;;;;;;341082;152;857411;-62
2021/07/01 04:38:04;;;;;;;9.70;7.71;;;;;;;;;;338375;156;857175;-62
2021/07/01 04:39:06;;;;;;;8.99;7.63;;;;;;;;;;340862;154;857344;-62
2021/07/01 04:40:10;;;;;;;11.48;7.85;;;;;;;;;;339179;155;866410;-63
2021/07/01 04:41:13;;;;;;;11.21;7.51;;;;;;;;;;340501;157;857471;-63
2021/07/01 04:42:15;;;;;;;11.11;7.79;;;;;;;;;;341116;157;857938;-63
2021/07/01 04:43:16;;;;;;;12.49;7.75;;;;;;;;;;340632;154;857377;-63
2021/07/01 04:44:18;;;;;;;12.69;7.99;;;;;;;;;;338907;155;857591;-63
2021/07/01 04:45:19;;;;;;;9.07;7.71;;;;;;;;;;338925;156;858041;-63
2021/07/01 04:46:22;;;;;;;11.31;7.81;;;;;;;;;;341440;152;857374;-63
2021/07/01 04:47:23;;;;;;;10.61;7.90;;;;;;;;;;341390;155;857225;-63
2021/07/01 04:48:25;;;;;;;15.16;7.93;;;;;;;;;;339440;156;857667;-63
2021/07/01 04:49:26;;;;;;;12.71;7.88;;;;;;;;;;342058;152;857455;-64
2021/07/01 04:50:29;;;;;;;12.36;8.79;;;;;;;;;;340278;155;857418;-63
2021/07/01 04:51:31;;;;;;;12.67;7.65;;;;;;;;;;341836;156;857340;-63
2021/07/01 04:52:32;;;;;;;9.02;7.92;;;;;;;;;;340212;154;865587;-63
2021/07/01 04:53:34;;;;;;;15.87;8.68;;;;;;;;;;340599;155;857849;-63
2021/07/01 04:54:36;;;;;;;12.23;8.26;;;;;;;;;;342592;156;857314;-63
2021/07/01 04:55:38;;;;;;;14.87;8.46;;;;;;;;;;342028;154;866311;-63
2021/07/01 04:56:44;;;;;;;11.68;8.18;;;;;;;;;;338830;154;865728;-61
2021/07/01 04:57:46;;;;;;;10.49;8.68;;;;;;;;;;343238;154;859070;-65
2021/07/01 04:58:48;;;;;;;11.19;8.46;;;;;;;;;;344307;153;857528;-63
2021/07/01 04:59:49;;;;;;;16.19;8.84;;;;;;;;;;341987;152;859514;-63
2021/07/01 05:00:51;;;;;;;12.01;7.66;;;;;;;;;;340160;157;857345;-63
2021/07/01 05:01:55;;;;;;;13.80;9.18;;;;;;;;;;340230;157;864933;-64
2021/07/01 05:02:56;;;;;;;16.73;8.75;;;;;;;;;;340605;154;857253;-63
2021/07/01 05:03:58;;;;;;;9.91;8.38;;;;;;;;;;341913;154;858714;-63
2021/07/01 05:04:59;;;;;;;13.67;8.83;;;;;;;;;;342806;152;866799;-63
2021/07/01 05:06:01;;;;;;;13.36;8.89;;;;;;;;;;341049;154;857160;-63
2021/07/01 05:07:02;;;;;;;11.16;8.77;;;;;;;;;;341515;152;859380;-61
2021/07/01 05:08:04;;;;;;;12.44;8.62;;;;;;;;;;340270;156;865562;-61
2021/07/01 05:09:06;;;;;;;10.80;8.86;;;;;;;;;;341328;154;857334;-61
2021/07/01 05:10:09;;;;;;;13.79;8.19;;;;;;;;;;338780;155;866460;-61
2021/07/01 05:11:10;;;;;;;13.09;8.61;;;;;;;;;;340724;157;859433;-61
2021/07/01 05:12:12;;;;;;;9.41;8.43;;;;;;;;;;342158;154;858907;-62
2021/07/01 05:13:13;;;;;;;10.85;8.64;;;;;;;;;;339010;152;866973;-62
2021/07/01 05:14:15;;;;;;;14.04;9.25;;;;;;;;;;339662;155;865823;-62
2021/07/01 05:15:17;;;;;;;12.47;8.93;;;;;;;;;;341559;156;856972;-63
2021/07/01 05:16:20;;;;;;;13.83;9.51;;;;;;;;;;340507;152;865035;-62
2021/07/01 05:17:22;;;;;;;10.69;8.62;;;;;;;;;;339138;155;857191;-62
2021/07/01 05:18:24;;;;;;;11.28;8.93;;;;;;;;;;337490;158;857300;-62
2021/07/01 05:19:25;;;;;;;10.71;8.66;;;;;;;;;;339892;152;866881;-62
2021/07/01 05:20:29;;;;;;;14.44;9.91;;;;;;;;;;337237;157;858901;-62
2021/07/01 05:21:31;;;;;;;12.74;9.70;;;;;;;;;;339121;156;857888;-62
2021/07/01 05:22:33;;;;;;;13.53;9.47;;;;;;;;;;339729;154;857706;-63
2021/07/01 05:23:34;;;;;;;10.70;9.21;;;;;;;;;;341027;154;857377;-63
2021/07/01 05:24:36;;;;;;;12.79;9.11;;;;;;;;;;343039;156;859147;-61
2021/07/01 05:25:38;;;;;;;12.84;9.03;;;;;;;;;;339413;156;857960;-61
2021/07/01 05:26:40;;;;;;;11.69;9.44;;;;;;;;;;340707;152;864975;-61
2021/07/01 05:27:41;;;;;;;13.77;9.86;;;;;;;;;;340631;157;857321;-63
2021/07/01 05:28:44;;;;;;;11.94;9.49;;;;;;;;;;341750;156;857331;-62
2021/07/01 05:29:45;;;;;;;16.37;9.79;;;;;;;;;;337998;154;859481;-61
2021/07/01 05:30:47;;;;;;;17.06;9.21;;;;;;;;;;340077;155;857364;-61
2021/07/01 05:31:49;;;;;;;11.68;10.05;;;;;;;;;;339664;157;859988;-64
2021/07/01 05:32:51;;;;;;;13.53;9.46;;;;;;;;;;339456;152;859452;-61
2021/07/01 05:33:52;;;;;;;13.78;9.99;;;;;;;;;;341349;155;858902;-61
2021/07/01 05:34:54;;;;;;;12.25;9.51;;;;;;;;;;342711;156;865057;-61
2021/07/01 05:35:55;;;;;;;12.32;9.74;;;;;;;;;;341029;153;857283;-62
2021/07/01 05:36:57;;;;;;;15.29;10.20;;;;;;;;;;339104;152;860679;-62
2021/07/01 05:37:59;;;;;;;14.03;9.97;;;;;;;;;;339381;154;865036;-62
2021/07/01 05:39:00;;;;;;;15.34;9.75;;;;;;;;;;344128;153;857262;-61
2021/07/01 05:40:03;;;;;;;14.37;10.52;;;;;;;;;;339622;155;857285;-61
2021/07/01 05:41:05;;;;;;;13.29;9.90;;;;;;;;;;342377;157;867232;-62
2021/07/01 05:42:06;;;;;;;12.20;9.78;;;;;;;;;;342904;156;858689;-63
2021/07/01 05:43:08;;;;;;;11.24;9.79;;;;;;;;;;338892;152;857448;-62
2021/07/01 05:44:10;;;;;;;13.78;10.47;;;;;;;;;;339104;154;866088;-62
2021/07/01 05:45:11;;;;;;;11.26;9.90;;;;;;;;;;341728;157;857410;-62
2021/07/01 05:46:13;;;;;;;15.58;10.02;;;;;;;;;;342127;152;857529;-62
2021/07/01 05:47:15;;;;;;;13.39;10.56;;;;;;;;;;339825;155;856942;-63
2021/07/01 05:48:18;;;;;;;16.39;10.30;;;;;;;;;;340285;156;857477;-63
2021/07/01 05:49:19;;;;;;;12.07;10.29;;;;;;;;;;341600;154;857902;-62
2021/07/01 05:50:22;;;;;;;13.03;10.38;;;;;;;;;;338547;155;857283;-62
2021/07/01 05:51:25;;;;;;;16.00;10.83;;;;;;;;;;343078;156;864930;-62
2021/07/01 05:52:29;;;;;;;13.85;10.87;;;;;;;;;;340802;157;866079;-62
2021/07/01 05:54:41;;;;;;;12.75;10.69;;;;;;;;;;320740;165;857697;-62
2021/07/01 05:55:40;;;;;;;13.24;10.25;;;;;;;;;;332995;156;859876;-61
2021/07/01 05:56:42;;;;;;;15.21;10.89;;;;;;;;;;340258;154;857615;-61
2021/07/01 05:57:43;;;;;;;15.68;10.36;;;;;;;;;;341057;155;864901;-62
2021/07/01 05:58:45;;;;;;;14.27;10.22;;;;;;;;;;341375;157;867888;-62
2021/07/01 05:59:46;;;;;;;12.17;9.87;;;;;;;;;;334020;156;857420;-63
2021/07/01 06:00:48;;;;;;;13.91;9.91;;;;;;;;;;340489;155;866680;-62
2021/07/01 06:01:50;;;;;;;12.00;10.17;;;;;;;;;;341450;156;865218;-63